Time;durP1;ratioP1;P1;durP2;ratioP2;P2;SDS_P1;SDS_P2;PMS_P1;PMS_P2;Temp;Humidity;BMP_temperature;BMP_pressure;BME280_temperature;BME280_humidity;BME280_pressure;Samples;Min_cycle;Max_cycle;Signal;HPM_P1;HPM_P2
2023/11/14 00:00:04;;;;;;;21.25;8.15;;;;;;;;;;10496416;28;20036;-73
2023/11/14 00:05:04;;;;;;;14.68;8.02;;;;;;;;;;10491989;28;20227;-74
2023/11/14 00:10:05;;;;;;;16.00;8.07;;;;;;;;;;10498970;28;20033;-74
2023/11/14 00:15:05;;;;;;;13.38;7.90;;;;;;;;;;10498865;28;20274;-72
2023/11/14 00:20:06;;;;;;;16.48;8.25;;;;;;;;;;10498927;28;20350;-74
2023/11/14 00:25:07;;;;;;;20.27;10.25;;;;;;;;;;10497081;28;20067;-74
2023/11/14 00:30:07;;;;;;;21.27;9.38;;;;;;;;;;10498266;28;20258;-74
2023/11/14 00:35:07;;;;;;;23.27;10.13;;;;;;;;;;10496355;28;20426;-74
2023/11/14 00:40:09;;;;;;;21.40;11.43;;;;;;;;;;10501009;28;20024;-73
2023/11/14 00:45:10;;;;;;;27.60;12.18;;;;;;;;;;10503991;28;20217;-73
2023/11/14 00:50:11;;;;;;;32.78;14.70;;;;;;;;;;10517432;28;20028;-73
2023/11/14 00:55:12;;;;;;;29.48;14.68;;;;;;;;;;10507380;28;20044;-73
2023/11/14 01:00:13;;;;;;;33.95;14.38;;;;;;;;;;10503618;28;20040;-72
2023/11/14 01:05:13;;;;;;;28.35;14.23;;;;;;;;;;10506605;28;20056;-73
2023/11/14 01:10:14;;;;;;;25.33;13.15;;;;;;;;;;10506440;28;20029;-73
2023/11/14 01:15:14;;;;;;;24.73;13.50;;;;;;;;;;10506613;28;20319;-73
2023/11/14 01:20:14;;;;;;;37.37;12.90;;;;;;;;;;10506486;28;20124;-74
2023/11/14 01:25:14;;;;;;;32.47;13.75;;;;;;;;;;10506013;28;20362;-73
2023/11/14 01:30:15;;;;;;;30.73;13.05;;;;;;;;;;10487788;28;20230;-73
2023/11/14 01:35:15;;;;;;;29.73;13.33;;;;;;;;;;10505808;28;20398;-74
2023/11/14 01:40:16;;;;;;;27.55;12.98;;;;;;;;;;10504752;28;20222;-74
2023/11/14 01:45:16;;;;;;;28.70;12.05;;;;;;;;;;10505266;28;20028;-74
2023/11/14 01:50:19;;;;;;;25.25;12.93;;;;;;;;;;10504439;28;20337;-73
2023/11/14 01:55:19;;;;;;;22.02;11.70;;;;;;;;;;10508334;28;20219;-74
2023/11/14 02:00:20;;;;;;;26.33;11.90;;;;;;;;;;10504707;28;20063;-74
2023/11/14 02:05:21;;;;;;;27.10;12.65;;;;;;;;;;10504709;28;20036;-74
2023/11/14 02:10:21;;;;;;;24.55;11.27;;;;;;;;;;10504268;28;20177;-73
2023/11/14 02:15:21;;;;;;;19.83;11.87;;;;;;;;;;10503482;28;20317;-73
2023/11/14 02:20:21;;;;;;;24.38;11.68;;;;;;;;;;10490469;28;20213;-74
2023/11/14 02:25:22;;;;;;;23.05;12.18;;;;;;;;;;10503990;28;20039;-74
2023/11/14 02:30:25;;;;;;;24.37;11.53;;;;;;;;;;10503555;28;20031;-74
2023/11/14 02:35:25;;;;;;;22.25;11.18;;;;;;;;;;10502417;28;20048;-74
2023/11/14 02:40:25;;;;;;;25.55;10.40;;;;;;;;;;10467495;28;20024;-74
2023/11/14 02:45:26;;;;;;;23.83;10.83;;;;;;;;;;10502768;28;20204;-74
2023/11/14 02:50:36;;;;;;;22.55;10.60;;;;;;;;;;10502655;28;20024;-73
2023/11/14 02:55:36;;;;;;;19.13;9.18;;;;;;;;;;10502322;28;20079;-73
2023/11/14 03:00:37;;;;;;;17.80;9.95;;;;;;;;;;10502161;28;20344;-74
2023/11/14 03:05:38;;;;;;;13.80;6.40;;;;;;;;;;10502239;28;20047;-73
2023/11/14 03:10:39;;;;;;;12.30;6.80;;;;;;;;;;10501941;28;20024;-74
2023/11/14 03:15:39;;;;;;;6.60;5.03;;;;;;;;;;10502720;28;20103;-73
2023/11/14 03:20:40;;;;;;;16.80;6.60;;;;;;;;;;10501461;28;20086;-74
2023/11/14 03:25:40;;;;;;;13.25;6.90;;;;;;;;;;10501441;28;20342;-73
2023/11/14 03:30:40;;;;;;;11.80;7.13;;;;;;;;;;10500826;28;20028;-73
2023/11/14 03:35:40;;;;;;;16.60;6.85;;;;;;;;;;10501088;28;20029;-74
2023/11/14 03:40:41;;;;;;;21.60;7.22;;;;;;;;;;10501095;28;20040;-73
2023/11/14 03:45:42;;;;;;;18.30;6.90;;;;;;;;;;10500922;28;20387;-72
2023/11/14 03:50:42;;;;;;;19.40;7.20;;;;;;;;;;10501063;28;20028;-72
2023/11/14 03:55:42;;;;;;;14.15;7.60;;;;;;;;;;10500541;28;20032;-72
2023/11/14 04:00:43;;;;;;;13.23;7.83;;;;;;;;;;10500242;28;20356;-72
2023/11/14 04:05:43;;;;;;;43.83;9.85;;;;;;;;;;10500333;28;20039;-73
2023/11/14 04:10:43;;;;;;;13.88;7.75;;;;;;;;;;10481875;28;20134;-73
2023/11/14 04:15:44;;;;;;;14.35;7.45;;;;;;;;;;10500127;28;20036;-72
2023/11/14 04:20:46;;;;;;;15.43;7.10;;;;;;;;;;10500663;28;20024;-72
2023/11/14 04:25:46;;;;;;;14.95;5.72;;;;;;;;;;10482544;28;20154;-71
2023/11/14 04:30:46;;;;;;;21.63;6.37;;;;;;;;;;10499338;28;20092;-73
2023/11/14 04:35:46;;;;;;;17.27;7.25;;;;;;;;;;10499901;28;20941;-72
2023/11/14 04:40:47;;;;;;;18.15;6.43;;;;;;;;;;10499989;28;20040;-72
2023/11/14 04:45:47;;;;;;;15.05;6.60;;;;;;;;;;10499377;28;20264;-74
2023/11/14 04:50:48;;;;;;;15.43;6.32;;;;;;;;;;10497081;28;20338;-74
2023/11/14 04:55:48;;;;;;;16.83;7.13;;;;;;;;;;10480045;28;20219;-72
2023/11/14 05:00:48;;;;;;;15.60;7.00;;;;;;;;;;10499266;28;20353;-73
2023/11/14 05:05:49;;;;;;;16.48;7.43;;;;;;;;;;10479560;28;20246;-72
2023/11/14 05:10:49;;;;;;;17.88;7.85;;;;;;;;;;10499035;28;20319;-72
2023/11/14 05:15:49;;;;;;;15.63;7.18;;;;;;;;;;10496455;28;20016;-72
2023/11/14 05:20:49;;;;;;;17.30;7.30;;;;;;;;;;10495054;28;20127;-72
2023/11/14 05:25:51;;;;;;;14.63;8.65;;;;;;;;;;10499945;28;20214;-71
2023/11/14 05:30:51;;;;;;;17.23;8.05;;;;;;;;;;10504282;28;20337;-72
2023/11/14 05:35:51;;;;;;;12.68;7.40;;;;;;;;;;10501993;28;20024;-72
2023/11/14 05:40:51;;;;;;;20.08;10.73;;;;;;;;;;10502004;28;20020;-72
2023/11/14 05:45:54;;;;;;;23.20;10.40;;;;;;;;;;10483548;28;20032;-72
2023/11/14 05:50:54;;;;;;;22.75;11.70;;;;;;;;;;10500822;28;20021;-71
2023/11/14 05:55:54;;;;;;;22.02;11.32;;;;;;;;;;10501034;28;20032;-71
2023/11/14 06:00:55;;;;;;;32.10;12.30;;;;;;;;;;10501442;28;20096;-72
2023/11/14 06:05:55;;;;;;;22.00;10.82;;;;;;;;;;10504167;28;20036;-73
2023/11/14 06:10:56;;;;;;;23.85;11.18;;;;;;;;;;10503509;28;20231;-72
2023/11/14 06:15:57;;;;;;;31.45;10.90;;;;;;;;;;10503360;28;20104;-72
2023/11/14 06:21:00;;;;;;;33.53;11.60;;;;;;;;;;10503075;28;20043;-71
2023/11/14 06:26:01;;;;;;;30.85;12.65;;;;;;;;;;10502452;28;20295;-71
2023/11/14 06:31:01;;;;;;;29.55;11.32;;;;;;;;;;10502498;28;20198;-73
2023/11/14 06:36:01;;;;;;;32.23;15.37;;;;;;;;;;10501429;28;20358;-73
2023/11/14 06:41:02;;;;;;;25.57;10.73;;;;;;;;;;10501998;28;20020;-73
2023/11/14 06:46:02;;;;;;;21.43;11.10;;;;;;;;;;10501864;28;20591;-72
2023/11/14 06:51:02;;;;;;;25.90;11.63;;;;;;;;;;10501626;28;20024;-72
2023/11/14 06:56:04;;;;;;;31.15;12.57;;;;;;;;;;10501584;28;20052;-72
2023/11/14 07:01:07;;;;;;;29.25;11.75;;;;;;;;;;10501423;28;20327;-72
2023/11/14 07:06:07;;;;;;;23.77;11.18;;;;;;;;;;10503182;28;20028;-73
2023/11/14 07:11:09;;;;;;;32.47;11.87;;;;;;;;;;10501218;28;20024;-72
2023/11/14 07:16:10;;;;;;;24.02;8.32;;;;;;;;;;10496212;28;20100;-71
2023/11/14 07:21:10;;;;;;;29.27;8.70;;;;;;;;;;10495441;28;20019;-72
2023/11/14 07:26:10;;;;;;;20.08;7.13;;;;;;;;;;10482390;28;20036;-71
2023/11/14 07:31:11;;;;;;;21.85;9.45;;;;;;;;;;10482507;28;20034;-72
2023/11/14 07:36:11;;;;;;;20.95;8.10;;;;;;;;;;10482821;28;20113;-72
2023/11/14 07:41:12;;;;;;;26.10;8.73;;;;;;;;;;10500371;28;20222;-72
2023/11/14 07:46:12;;;;;;;20.13;8.30;;;;;;;;;;10499433;28;20035;-73
2023/11/14 07:51:13;;;;;;;23.33;9.55;;;;;;;;;;10500571;28;20322;-72
2023/11/14 07:56:14;;;;;;;25.23;8.23;;;;;;;;;;10499969;28;20031;-72
2023/11/14 08:01:14;;;;;;;22.25;8.65;;;;;;;;;;10497425;28;20307;-72
2023/11/14 08:06:14;;;;;;;23.17;8.88;;;;;;;;;;10495406;28;20318;-72
2023/11/14 08:11:15;;;;;;;27.00;9.10;;;;;;;;;;10497826;28;20310;-73
2023/11/14 08:16:15;;;;;;;15.17;6.43;;;;;;;;;;10497668;28;20032;-72
2023/11/14 08:21:16;;;;;;;6.88;3.60;;;;;;;;;;10495363;28;20537;-74
2023/11/14 08:26:16;;;;;;;13.18;3.55;;;;;;;;;;10492400;28;20048;-72
2023/11/14 08:31:16;;;;;;;15.70;5.75;;;;;;;;;;10493504;28;20045;-72
2023/11/14 08:36:16;;;;;;;21.10;7.07;;;;;;;;;;10491925;28;20099;-72
2023/11/14 08:41:17;;;;;;;12.93;6.32;;;;;;;;;;10476793;28;20314;-71
2023/11/14 08:46:18;;;;;;;10.40;5.13;;;;;;;;;;10493810;28;20036;-71
2023/11/14 08:51:20;;;;;;;12.90;5.25;;;;;;;;;;10494308;28;20208;-71
2023/11/14 08:56:20;;;;;;;11.23;5.22;;;;;;;;;;10495466;28;20032;-71
2023/11/14 09:01:21;;;;;;;13.25;5.55;;;;;;;;;;10500228;28;20050;-72
2023/11/14 09:06:21;;;;;;;10.13;4.90;;;;;;;;;;10502370;28;20237;-72
2023/11/14 09:11:22;;;;;;;16.60;6.80;;;;;;;;;;10485451;28;20337;-71
2023/11/14 09:16:23;;;;;;;22.00;8.27;;;;;;;;;;10502953;28;20060;-72
2023/11/14 09:21:23;;;;;;;29.10;6.95;;;;;;;;;;10502459;28;20032;-70
2023/11/14 09:26:24;;;;;;;10.45;5.13;;;;;;;;;;10502189;28;20032;-71
2023/11/14 09:31:24;;;;;;;10.05;4.55;;;;;;;;;;10483487;28;20324;-71
2023/11/14 09:36:26;;;;;;;10.50;4.43;;;;;;;;;;10503253;28;20231;-71
2023/11/14 09:41:26;;;;;;;14.80;6.25;;;;;;;;;;10505490;28;20394;-71
2023/11/14 09:46:27;;;;;;;15.43;6.30;;;;;;;;;;10504463;28;20051;-71
2023/11/14 09:51:31;;;;;;;8.85;3.47;;;;;;;;;;10504252;28;20031;-71
2023/11/14 09:56:31;;;;;;;10.68;4.03;;;;;;;;;;10503933;28;20028;-70
2023/11/14 10:01:31;;;;;;;8.15;3.85;;;;;;;;;;10485264;28;20118;-70
2023/11/14 10:06:33;;;;;;;7.63;4.00;;;;;;;;;;10503336;28;20029;-71
2023/11/14 10:11:43;;;;;;;11.50;3.92;;;;;;;;;;10502409;28;20330;-70
2023/11/14 10:16:44;;;;;;;11.70;3.47;;;;;;;;;;10503293;28;20331;-71
2023/11/14 10:21:44;;;;;;;14.63;3.47;;;;;;;;;;10503049;28;20051;-71
2023/11/14 10:26:52;;;;;;;9.77;2.87;;;;;;;;;;10502237;28;20232;-70
2023/11/14 10:31:52;;;;;;;12.65;3.10;;;;;;;;;;10484577;28;20052;-70
2023/11/14 10:36:54;;;;;;;3.95;2.30;;;;;;;;;;10502431;28;20216;-71
2023/11/14 10:41:54;;;;;;;7.32;2.85;;;;;;;;;;10484171;28;20052;-71
2023/11/14 10:46:58;;;;;;;7.47;3.07;;;;;;;;;;10501807;28;20035;-72
2023/11/14 10:51:59;;;;;;;3.72;1.70;;;;;;;;;;10501555;28;20222;-70
2023/11/14 10:56:59;;;;;;;13.48;4.32;;;;;;;;;;10501623;28;20077;-70
2023/11/14 11:02:00;;;;;;;9.18;2.40;;;;;;;;;;10501602;28;20242;-70
2023/11/14 11:07:00;;;;;;;5.32;2.22;;;;;;;;;;10501395;28;20028;-71
2023/11/14 11:12:01;;;;;;;7.55;2.10;;;;;;;;;;10498120;28;20036;-69
2023/11/14 11:17:03;;;;;;;6.18;2.45;;;;;;;;;;10499107;28;20059;-70
2023/11/14 11:22:03;;;;;;;8.30;2.72;;;;;;;;;;10498830;28;20028;-68
2023/11/14 11:27:10;;;;;;;4.60;2.40;;;;;;;;;;10498420;28;20028;-68
2023/11/14 11:32:26;;;;;;;6.60;2.10;;;;;;;;;;10498367;28;20386;-67
2023/11/14 11:37:43;;;;;;;7.22;2.97;;;;;;;;;;10507816;28;20055;-68
2023/11/14 11:42:43;;;;;;;9.93;3.28;;;;;;;;;;10496130;28;20039;-67
2023/11/14 11:47:44;;;;;;;13.32;3.58;;;;;;;;;;10498267;28;20051;-67
2023/11/14 11:52:47;;;;;;;9.15;4.05;;;;;;;;;;10498154;28;20202;-68
2023/11/14 11:57:47;;;;;;;10.15;3.17;;;;;;;;;;10498332;28;20040;-68
2023/11/14 12:02:48;;;;;;;14.45;3.53;;;;;;;;;;10497262;28;20043;-69
2023/11/14 12:07:49;;;;;;;18.20;3.67;;;;;;;;;;10499307;28;20104;-69
2023/11/14 12:12:56;;;;;;;9.40;3.63;;;;;;;;;;10498653;28;20259;-71
2023/11/14 12:17:57;;;;;;;12.17;3.00;;;;;;;;;;10499282;28;20106;-70
2023/11/14 12:22:57;;;;;;;8.98;3.40;;;;;;;;;;10498890;28;20286;-70
2023/11/14 12:27:59;;;;;;;8.63;3.45;;;;;;;;;;10498908;28;20028;-70
2023/11/14 12:33:03;;;;;;;10.63;3.28;;;;;;;;;;10500449;28;20036;-69
2023/11/14 12:38:03;;;;;;;15.15;4.38;;;;;;;;;;10507287;28;20033;-70
2023/11/14 12:43:03;;;;;;;12.82;3.30;;;;;;;;;;10507218;28;20329;-69
2023/11/14 12:48:04;;;;;;;7.53;3.60;;;;;;;;;;10507063;28;20063;-69
2023/11/14 12:53:04;;;;;;;17.27;4.60;;;;;;;;;;10506677;28;20219;-69
2023/11/14 12:58:04;;;;;;;11.07;3.28;;;;;;;;;;10506514;28;20032;-69
2023/11/14 13:03:05;;;;;;;11.85;4.32;;;;;;;;;;10487957;28;20341;-69
2023/11/14 13:08:06;;;;;;;11.50;3.88;;;;;;;;;;10505540;28;20338;-68
2023/11/14 13:13:06;;;;;;;8.90;2.90;;;;;;;;;;10470198;28;20032;-69
2023/11/14 13:18:06;;;;;;;14.35;3.33;;;;;;;;;;10493735;28;20500;-70
2023/11/14 13:23:07;;;;;;;8.65;2.83;;;;;;;;;;10505442;28;20028;-69
2023/11/14 13:28:08;;;;;;;5.03;2.65;;;;;;;;;;10487186;28;20107;-69
2023/11/14 13:33:08;;;;;;;12.85;3.45;;;;;;;;;;10504456;28;20338;-69
2023/11/14 13:38:08;;;;;;;6.97;2.75;;;;;;;;;;10505161;28;20048;-69
2023/11/14 13:43:08;;;;;;;8.38;3.50;;;;;;;;;;10505200;28;20297;-69
2023/11/14 13:48:09;;;;;;;11.82;2.88;;;;;;;;;;10504353;28;20039;-70
2023/11/14 13:53:09;;;;;;;7.18;2.35;;;;;;;;;;10504408;28;20051;-70
2023/11/14 13:58:10;;;;;;;8.15;2.40;;;;;;;;;;10504169;28;20271;-70
2023/11/14 14:03:10;;;;;;;4.88;2.25;;;;;;;;;;10504389;28;20089;-70
2023/11/14 14:08:10;;;;;;;15.00;2.90;;;;;;;;;;10503616;28;20028;-69
2023/11/14 14:13:11;;;;;;;9.30;3.40;;;;;;;;;;10503578;28;20028;-69
2023/11/14 14:18:12;;;;;;;14.52;3.63;;;;;;;;;;10503450;28;20024;-68
2023/11/14 14:23:15;;;;;;;18.02;4.68;;;;;;;;;;10503161;28;20028;-68
2023/11/14 14:28:20;;;;;;;17.00;3.80;;;;;;;;;;10503045;28;20263;-69
2023/11/14 14:33:20;;;;;;;17.05;3.55;;;;;;;;;;10502700;28;20222;-69
2023/11/14 14:38:21;;;;;;;16.65;4.13;;;;;;;;;;10502422;28;20086;-69
2023/11/14 14:43:23;;;;;;;11.70;4.07;;;;;;;;;;10500083;28;20064;-69
2023/11/14 14:48:23;;;;;;;18.75;4.68;;;;;;;;;;10498612;28;20119;-68
2023/11/14 14:53:24;;;;;;;16.85;5.38;;;;;;;;;;10500153;28;20032;-69
2023/11/14 14:58:24;;;;;;;14.65;4.30;;;;;;;;;;10499153;28;20387;-69
2023/11/14 15:03:25;;;;;;;24.65;4.55;;;;;;;;;;10500024;28;20035;-68
2023/11/14 15:08:25;;;;;;;25.48;9.77;;;;;;;;;;10499451;28;20396;-68
2023/11/14 15:13:25;;;;;;;22.95;6.85;;;;;;;;;;10499284;28;20086;-69
2023/11/14 15:18:26;;;;;;;26.37;7.53;;;;;;;;;;10499414;28;20326;-69
2023/11/14 15:23:26;;;;;;;22.92;8.07;;;;;;;;;;10499501;28;20032;-68
2023/11/14 15:28:26;;;;;;;30.17;7.28;;;;;;;;;;10498659;28;20035;-69
2023/11/14 15:33:27;;;;;;;24.50;7.77;;;;;;;;;;10498478;28;20036;-69
2023/11/14 15:38:28;;;;;;;20.85;5.90;;;;;;;;;;10500431;28;20096;-71
2023/11/14 15:43:28;;;;;;;23.10;8.68;;;;;;;;;;10498297;28;20235;-71
2023/11/14 15:48:32;;;;;;;25.00;7.20;;;;;;;;;;10498249;28;20051;-70
2023/11/14 15:53:32;;;;;;;15.02;5.70;;;;;;;;;;10498122;28;20024;-71
2023/11/14 15:58:34;;;;;;;27.85;8.50;;;;;;;;;;10497913;28;20254;-70
2023/11/14 16:03:35;;;;;;;16.00;6.80;;;;;;;;;;10497330;28;20040;-69
2023/11/14 16:08:35;;;;;;;23.45;7.18;;;;;;;;;;10497282;28;20356;-70
2023/11/14 16:13:36;;;;;;;18.90;7.43;;;;;;;;;;10497309;28;20183;-70
2023/11/14 16:18:36;;;;;;;22.73;7.80;;;;;;;;;;10497768;28;20301;-70
2023/11/14 16:23:37;;;;;;;29.60;8.73;;;;;;;;;;10498117;28;20073;-70
2023/11/14 16:28:37;;;;;;;32.22;8.25;;;;;;;;;;10496903;28;20127;-70
2023/11/14 16:33:37;;;;;;;33.47;9.83;;;;;;;;;;10496989;28;20047;-70
2023/11/14 16:38:38;;;;;;;26.80;8.90;;;;;;;;;;10497425;28;20036;-70
2023/11/14 16:43:41;;;;;;;28.60;10.05;;;;;;;;;;10496417;28;20235;-71
2023/11/14 16:48:41;;;;;;;43.30;9.95;;;;;;;;;;10496893;28;20246;-70
2023/11/14 16:53:41;;;;;;;30.67;10.13;;;;;;;;;;10497760;28;20049;-69
2023/11/14 16:58:42;;;;;;;15.73;7.00;;;;;;;;;;10496604;28;20231;-71
2023/11/14 17:03:42;;;;;;;15.75;7.35;;;;;;;;;;10496529;28;20036;-69
2023/11/14 17:08:42;;;;;;;29.02;8.43;;;;;;;;;;10496555;28;20366;-70
2023/11/14 17:13:43;;;;;;;28.13;9.48;;;;;;;;;;10496426;28;20047;-68
2023/11/14 17:18:43;;;;;;;28.75;7.95;;;;;;;;;;10496919;28;20206;-69
2023/11/14 17:23:44;;;;;;;30.00;10.10;;;;;;;;;;10504387;28;20059;-69
2023/11/14 17:28:44;;;;;;;33.80;11.23;;;;;;;;;;10503870;28;20318;-69
2023/11/14 17:33:45;;;;;;;50.13;12.98;;;;;;;;;;10503207;28;20108;-69
2023/11/14 17:38:45;;;;;;;30.45;12.32;;;;;;;;;;10503681;28;20036;-68
2023/11/14 17:43:45;;;;;;;34.00;12.63;;;;;;;;;;10502857;28;20036;-69
2023/11/14 17:48:45;;;;;;;47.67;14.23;;;;;;;;;;10502909;28;20081;-69
2023/11/14 17:53:46;;;;;;;36.30;13.43;;;;;;;;;;10503433;28;20449;-68
2023/11/14 17:58:46;;;;;;;43.80;13.48;;;;;;;;;;10502388;28;20036;-70
2023/11/14 18:03:46;;;;;;;28.93;12.67;;;;;;;;;;10502772;28;20036;-69
2023/11/14 18:08:49;;;;;;;33.10;12.80;;;;;;;;;;10502901;28;20282;-68
2023/11/14 18:13:49;;;;;;;48.83;15.10;;;;;;;;;;10502086;28;20032;-69
2023/11/14 18:18:49;;;;;;;36.22;12.45;;;;;;;;;;10501842;28;20108;-69
2023/11/14 18:23:49;;;;;;;45.07;16.47;;;;;;;;;;10502245;28;20110;-69
2023/11/14 18:28:50;;;;;;;42.05;12.23;;;;;;;;;;10501792;28;20286;-70
2023/11/14 18:33:50;;;;;;;29.30;12.13;;;;;;;;;;10500412;28;20041;-67
2023/11/14 18:38:50;;;;;;;29.27;10.52;;;;;;;;;;10501745;28;20040;-70
2023/11/14 18:43:51;;;;;;;25.70;9.25;;;;;;;;;;10501031;28;20196;-69
2023/11/14 18:48:51;;;;;;;35.60;9.00;;;;;;;;;;10500512;28;20044;-70
2023/11/14 18:53:52;;;;;;;28.77;10.43;;;;;;;;;;10500652;28;20032;-69
2023/11/14 18:58:52;;;;;;;34.72;11.27;;;;;;;;;;10482339;28;20028;-69
2023/11/14 19:03:52;;;;;;;33.60;10.27;;;;;;;;;;10500103;28;20231;-70
2023/11/14 19:08:52;;;;;;;25.45;8.48;;;;;;;;;;10499637;28;20505;-68
2023/11/14 19:13:53;;;;;;;37.50;12.90;;;;;;;;;;10499221;28;20059;-69
2023/11/14 19:18:53;;;;;;;26.52;9.27;;;;;;;;;;10499815;28;20032;-69
2023/11/14 19:23:53;;;;;;;21.60;8.57;;;;;;;;;;10499731;28;20134;-69
2023/11/14 19:28:53;;;;;;;30.52;11.00;;;;;;;;;;10499046;28;20042;-69
2023/11/14 19:33:54;;;;;;;23.95;10.55;;;;;;;;;;10498726;28;20230;-69
2023/11/14 19:38:54;;;;;;;27.17;9.63;;;;;;;;;;10496229;28;20196;-68
2023/11/14 19:43:54;;;;;;;31.90;9.43;;;;;;;;;;10498787;28;20238;-70
2023/11/14 19:48:55;;;;;;;27.83;10.45;;;;;;;;;;10498436;28;20086;-69
2023/11/14 19:53:55;;;;;;;26.92;8.95;;;;;;;;;;10498716;28;20385;-72
2023/11/14 19:58:55;;;;;;;21.65;9.27;;;;;;;;;;10498229;28;20037;-69
2023/11/14 20:03:55;;;;;;;23.60;10.38;;;;;;;;;;10494466;28;20486;-75
2023/11/14 20:08:58;;;;;;;24.98;11.13;;;;;;;;;;10477472;28;20178;-70
2023/11/14 20:13:59;;;;;;;31.98;11.98;;;;;;;;;;10476040;28;20020;-74
2023/11/14 20:19:00;;;;;;;30.33;12.23;;;;;;;;;;10472485;28;20207;-72
2023/11/14 20:24:00;;;;;;;29.38;10.88;;;;;;;;;;10472966;28;20032;-73
2023/11/14 20:29:01;;;;;;;22.27;9.88;;;;;;;;;;10469914;28;20041;-75
2023/11/14 20:34:01;;;;;;;17.50;8.23;;;;;;;;;;10470576;28;20036;-73
2023/11/14 20:39:02;;;;;;;22.38;8.60;;;;;;;;;;10465420;28;20056;-75
2023/11/14 20:44:02;;;;;;;17.90;7.15;;;;;;;;;;10460984;28;20474;-74
2023/11/14 20:49:03;;;;;;;18.15;8.10;;;;;;;;;;10466832;28;20040;-75
2023/11/14 20:54:04;;;;;;;13.70;6.10;;;;;;;;;;10471263;28;20044;-74
2023/11/14 20:59:04;;;;;;;15.10;5.70;;;;;;;;;;10467254;28;20319;-74
2023/11/14 21:04:04;;;;;;;13.63;6.30;;;;;;;;;;10468267;28;20266;-74
2023/11/14 21:09:05;;;;;;;12.37;6.03;;;;;;;;;;10476036;28;20342;-74
2023/11/14 21:14:05;;;;;;;11.85;5.50;;;;;;;;;;10465736;28;20344;-74
2023/11/14 21:19:05;;;;;;;13.32;6.75;;;;;;;;;;10475890;28;20067;-70
2023/11/14 21:24:06;;;;;;;11.80;6.00;;;;;;;;;;10472959;28;20021;-72
2023/11/14 21:29:07;;;;;;;19.08;6.57;;;;;;;;;;10472482;28;20370;-72
2023/11/14 21:34:08;;;;;;;22.52;7.20;;;;;;;;;;10468343;28;20200;-75
2023/11/14 21:39:08;;;;;;;11.60;5.45;;;;;;;;;;10464231;28;20024;-73
2023/11/14 21:44:08;;;;;;;12.30;6.15;;;;;;;;;;10459670;28;20040;-73
2023/11/14 21:49:10;;;;;;;12.60;6.03;;;;;;;;;;10473299;28;20037;-77
2023/11/14 21:54:10;;;;;;;14.20;6.43;;;;;;;;;;10477068;28;20024;-75
2023/11/14 21:59:11;;;;;;;12.50;5.32;;;;;;;;;;10467964;28;20025;-75
2023/11/14 22:04:11;;;;;;;16.30;6.10;;;;;;;;;;10464133;28;20033;-73
2023/11/14 22:09:11;;;;;;;14.57;5.72;;;;;;;;;;10475517;28;20055;-74
2023/11/14 22:14:12;;;;;;;12.73;5.10;;;;;;;;;;10488271;28;20526;-72
2023/11/14 22:19:12;;;;;;;10.90;5.90;;;;;;;;;;10480551;28;20273;-72
2023/11/14 22:24:12;;;;;;;14.20;6.17;;;;;;;;;;10487193;28;20032;-71
2023/11/14 22:29:12;;;;;;;15.02;7.68;;;;;;;;;;10473091;28;20258;-70
2023/11/14 22:34:13;;;;;;;18.27;7.95;;;;;;;;;;10477679;28;20053;-71
2023/11/14 22:39:15;;;;;;;15.43;7.13;;;;;;;;;;10470927;28;20079;-74
2023/11/14 22:44:15;;;;;;;21.25;7.30;;;;;;;;;;10472702;28;20024;-72
2023/11/14 22:49:16;;;;;;;14.77;7.05;;;;;;;;;;10470689;28;20188;-73
2023/11/14 22:54:16;;;;;;;15.57;5.82;;;;;;;;;;10496133;28;20103;-69
2023/11/14 22:59:17;;;;;;;16.20;6.93;;;;;;;;;;10500807;28;20076;-69
2023/11/14 23:04:17;;;;;;;16.08;6.88;;;;;;;;;;10501386;28;20086;-70
2023/11/14 23:09:19;;;;;;;12.75;6.82;;;;;;;;;;10517010;28;20021;-69
2023/11/14 23:14:19;;;;;;;10.88;6.05;;;;;;;;;;10487549;28;20453;-70
2023/11/14 23:19:19;;;;;;;16.83;6.80;;;;;;;;;;10499204;28;20314;-69
2023/11/14 23:24:20;;;;;;;17.35;6.88;;;;;;;;;;10500617;28;20139;-70
2023/11/14 23:29:20;;;;;;;12.80;6.38;;;;;;;;;;10477627;28;20270;-71
2023/11/14 23:34:20;;;;;;;13.80;6.20;;;;;;;;;;10494203;28;20036;-68
2023/11/14 23:39:20;;;;;;;13.38;5.63;;;;;;;;;;10486869;28;20016;-69
2023/11/14 23:44:21;;;;;;;13.23;6.70;;;;;;;;;;10477537;28;20311;-68
2023/11/14 23:49:21;;;;;;;21.13;5.68;;;;;;;;;;10497030;28;20362;-69
2023/11/14 23:54:21;;;;;;;11.65;5.65;;;;;;;;;;10497300;28;20051;-69
2023/11/14 23:59:22;;;;;;;19.20;5.70;;;;;;;;;;10495425;28;20225;-68
